createdAt,value
2019-02-24T00:09:40.553Z,13
2019-02-24T00:19:48.757Z,13
2019-02-24T00:29:55.521Z,18
2019-02-24T00:40:04.039Z,26
2019-02-24T00:50:09.629Z,10
2019-02-24T01:00:17.187Z,11
2019-02-24T01:10:23.505Z,11
2019-02-24T01:20:31.348Z,10
2019-02-24T01:30:38.277Z,15
2019-02-24T01:40:45.991Z,13
2019-02-24T01:50:52.539Z,10
2019-02-24T01:59:10.544Z,10
2019-02-24T02:09:16.882Z,9
2019-02-24T02:19:25.475Z,9
2019-02-24T02:29:33.267Z,11
2019-02-24T02:39:41.423Z,9
2019-02-24T02:49:47.465Z,8
2019-02-24T02:59:55.013Z,9
2019-02-24T03:10:03.748Z,9
2019-02-24T03:20:12.838Z,9
2019-02-24T03:30:17.161Z,8
2019-02-24T03:40:24.383Z,9
2019-02-24T03:50:31.776Z,8
2019-02-24T03:59:52.032Z,11
2019-02-24T04:09:59.583Z,10
2019-02-24T04:20:08.334Z,10
2019-02-24T04:30:15.862Z,10
2019-02-24T04:40:23.248Z,12
2019-02-24T04:50:29.437Z,8
2019-02-24T05:00:36.982Z,11
2019-02-24T05:10:45.041Z,9
2019-02-24T05:20:53.164Z,11
2019-02-24T05:31:00.540Z,10
2019-02-24T05:41:08.220Z,9
2019-02-24T05:51:16.963Z,11
2019-02-24T06:00:35.160Z,8
2019-02-24T06:10:42.851Z,14
2019-02-24T06:20:51.774Z,10
2019-02-24T06:31:01.561Z,9
2019-02-24T06:41:09.285Z,9
2019-02-24T06:51:18.823Z,11
2019-02-24T07:01:25.446Z,8
2019-02-24T07:11:35.146Z,9
2019-02-24T07:21:39.685Z,13
2019-02-24T07:30:57.327Z,12
2019-02-24T07:41:04.071Z,9
2019-02-24T07:51:12.354Z,10
2019-02-24T08:01:19.188Z,11
2019-02-24T08:11:25.358Z,10
2019-02-24T08:21:33.073Z,9
2019-02-24T08:31:39.441Z,11
2019-02-24T08:41:45.918Z,11
2019-02-24T08:51:56.710Z,10
2019-02-24T09:02:04.182Z,14
2019-02-24T09:12:11.529Z,12
2019-02-24T09:22:19.123Z,9
2019-02-24T09:31:38.262Z,11
2019-02-24T09:41:44.818Z,10
2019-02-24T09:51:52.701Z,11
2019-02-24T10:01:57.005Z,13
2019-02-24T10:12:05.516Z,11
2019-02-24T10:22:12.681Z,14
2019-02-24T10:32:19.874Z,8
2019-02-24T10:42:27.414Z,9
2019-02-24T10:49:42.621Z,11
2019-02-24T10:59:51.313Z,11
2019-02-24T11:02:06.781Z,10
2019-02-24T11:12:14.861Z,8
2019-02-24T11:22:21.749Z,10
2019-02-24T11:32:30.556Z,10
2019-02-24T11:42:35.993Z,11
2019-02-24T11:52:43.608Z,13
2019-02-24T12:02:51.476Z,11
2019-02-24T12:13:00.148Z,12
2019-02-24T12:23:06.825Z,13
2019-02-24T12:33:13.910Z,23
2019-02-24T12:43:21.229Z,15
2019-02-24T12:50:38.644Z,12
2019-02-24T13:00:47.482Z,15
2019-02-24T13:04:00.779Z,11
2019-02-24T13:14:10.243Z,12
2019-02-24T13:24:17.918Z,17
2019-02-24T13:34:26.819Z,12
2019-02-24T13:44:34.540Z,13
2019-02-24T13:54:43.794Z,10
2019-02-24T14:02:59.922Z,10
2019-02-24T14:13:06.743Z,10
2019-02-24T14:23:13.983Z,12
2019-02-24T14:24:28.047Z,11
2019-02-24T14:34:35.206Z,10
2019-02-24T14:44:42.276Z,9
2019-02-24T14:54:47.812Z,12
2019-02-24T15:04:56.795Z,10
2019-02-24T15:15:03.320Z,11
2019-02-24T15:25:13.594Z,11
2019-02-24T15:35:26.451Z,11
2019-02-24T15:45:35.558Z,10
2019-02-24T15:55:45.928Z,11
2019-02-24T16:05:58.058Z,11
2019-02-24T16:16:04.175Z,15
2019-02-24T16:26:10.980Z,13
2019-02-24T16:36:17.058Z,17
2019-02-24T16:46:23.454Z,21
2019-02-24T16:56:30.688Z,27
2019-02-24T16:57:44.720Z,32
2019-02-24T17:02:58.667Z,19
2019-02-24T17:13:04.053Z,29
2019-02-24T17:23:10.989Z,36
2019-02-24T17:24:24.756Z,49
2019-02-24T17:34:32.552Z,50
2019-02-24T17:44:39.367Z,28
2019-02-24T17:51:57.977Z,31
2019-02-24T18:00:15.449Z,19
2019-02-24T18:10:22.534Z,32
2019-02-24T18:20:29.169Z,36
2019-02-24T18:30:39.779Z,24
2019-02-24T18:40:47.211Z,16
2019-02-24T18:50:55.480Z,14
2019-02-24T18:55:10.125Z,13
2019-02-24T19:05:18.322Z,14
2019-02-24T19:15:25.141Z,15
2019-02-24T19:25:33.739Z,17
2019-02-24T19:35:41.038Z,15
2019-02-24T19:45:45.939Z,19
2019-02-24T19:55:53.848Z,17
2019-02-24T20:06:00.569Z,21
2019-02-24T20:16:08.618Z,14
2019-02-24T20:26:17.424Z,14
2019-02-24T20:36:26.194Z,16
2019-02-24T20:46:35.248Z,20
2019-02-24T20:56:43.127Z,21
2019-02-24T21:06:51.582Z,26
2019-02-24T21:16:59.661Z,24
2019-02-24T21:27:05.472Z,27
2019-02-24T21:37:12.842Z,24
2019-02-24T21:47:21.364Z,16
2019-02-24T21:57:26.742Z,17
2019-02-24T22:07:33.334Z,15
2019-02-24T22:17:39.944Z,15
2019-02-24T22:27:48.697Z,14
2019-02-24T22:37:56.603Z,12
2019-02-24T22:48:03.886Z,15
2019-02-24T22:58:11.330Z,14
2019-02-24T23:08:22.732Z,15
2019-02-24T23:18:26.923Z,14
2019-02-24T23:28:35.039Z,11
2019-02-24T23:38:41.773Z,13
2019-02-24T23:48:50.115Z,12
2019-02-24T23:58:58.170Z,13
